Time;durP1;ratioP1;P1;durP2;ratioP2;P2;SDS_P1;SDS_P2;PMS_P1;PMS_P2;Temp;Humidity;BMP_temperature;BMP_pressure;BME280_temperature;BME280_humidity;BME280_pressure;Samples;Min_cycle;Max_cycle;Signal;HPM_P1;HPM_P2
2022/03/19 00:02:22;;;;;;;72.17;31.10;;;0.50;99.90;;;;;;4425922;32;20142;-73
2022/03/19 00:04:49;;;;;;;74.67;31.13;;;0.40;99.90;;;;;;4412577;32;20193;-73
2022/03/19 00:07:16;;;;;;;67.37;30.10;;;0.30;99.90;;;;;;4411802;32;20170;-73
2022/03/19 00:09:43;;;;;;;69.57;30.47;;;0.30;99.90;;;;;;4427674;32;20500;-73
2022/03/19 00:12:14;;;;;;;67.13;30.43;;;0.30;99.90;;;;;;4411217;32;20454;-73
2022/03/19 00:14:42;;;;;;;72.50;32.13;;;0.30;99.90;;;;;;4425703;32;20143;-72
2022/03/19 00:17:10;;;;;;;74.17;31.67;;;0.30;99.90;;;;;;4411969;32;20440;-73
2022/03/19 00:19:41;;;;;;;71.07;31.53;;;0.30;99.90;;;;;;4412863;32;20192;-73
2022/03/19 00:22:08;;;;;;;78.20;33.30;;;0.20;99.90;;;;;;4411273;32;20194;-72
2022/03/19 00:24:36;;;;;;;71.70;33.33;;;0.10;99.90;;;;;;4411203;32;20241;-72
2022/03/19 00:27:03;;;;;;;72.00;33.33;;;0.10;99.90;;;;;;4411062;32;20210;-73
2022/03/19 00:29:30;;;;;;;81.20;36.07;;;0.10;99.90;;;;;;4411066;32;20174;-72
2022/03/19 00:31:57;;;;;;;86.70;36.50;;;0.00;99.90;;;;;;4425653;32;20169;-73
2022/03/19 00:34:24;;;;;;;84.00;36.30;;;0.00;99.90;;;;;;4411263;32;20182;-72
2022/03/19 00:36:51;;;;;;;84.47;36.80;;;-0.10;99.90;;;;;;4411735;32;20170;-73
2022/03/19 00:39:17;;;;;;;89.60;38.93;;;-0.10;99.90;;;;;;4411168;32;20174;-74
2022/03/19 00:41:44;;;;;;;99.53;40.07;;;-0.10;99.90;;;;;;4411090;32;20194;-73
2022/03/19 00:44:12;;;;;;;94.07;40.73;;;-0.10;99.90;;;;;;4426158;32;20192;-73
2022/03/19 00:46:38;;;;;;;101.70;39.77;;;-0.10;99.90;;;;;;4424762;32;20199;-73
2022/03/19 00:49:06;;;;;;;95.93;40.23;;;-0.20;99.90;;;;;;4411071;32;20177;-73
2022/03/19 00:51:36;;;;;;;97.43;40.80;;;-0.20;99.90;;;;;;4412119;32;20240;-72
2022/03/19 00:54:03;;;;;;;101.43;42.87;;;-0.10;99.90;;;;;;4410967;32;20263;-73
2022/03/19 00:56:30;;;;;;;109.70;42.40;;;-0.20;99.90;;;;;;4411476;32;20178;-72
2022/03/19 00:58:57;;;;;;;111.10;43.03;;;-0.20;99.90;;;;;;4411025;32;20516;-73
2022/03/19 01:01:24;;;;;;;105.97;42.73;;;-0.30;99.90;;;;;;4410373;32;20302;-73
2022/03/19 01:03:51;;;;;;;120.50;42.40;;;-0.30;99.90;;;;;;4425079;32;20147;-73
2022/03/19 01:06:18;;;;;;;99.23;41.90;;;-0.30;99.90;;;;;;4411094;32;20197;-72
2022/03/19 01:08:45;;;;;;;95.03;41.37;;;-0.30;99.90;;;;;;4425847;32;20146;-73
2022/03/19 01:11:13;;;;;;;100.07;42.10;;;-0.40;99.90;;;;;;4425827;32;20147;-73
2022/03/19 01:13:40;;;;;;;98.73;40.93;;;-0.40;99.90;;;;;;4410612;32;20205;-72
2022/03/19 01:16:07;;;;;;;94.70;39.90;;;-0.40;99.90;;;;;;4410395;32;20178;-73
2022/03/19 01:18:35;;;;;;;97.77;38.67;;;-0.40;99.90;;;;;;4411836;32;20197;-73
2022/03/19 01:21:02;;;;;;;98.63;40.50;;;-0.40;99.90;;;;;;4412094;32;20234;-73
2022/03/19 01:23:29;;;;;;;104.13;40.60;;;-0.40;99.90;;;;;;4424860;32;20401;-73
2022/03/19 01:25:55;;;;;;;98.83;39.93;;;-0.50;99.90;;;;;;4424753;32;20516;-73
2022/03/19 01:28:22;;;;;;;95.63;38.60;;;-0.50;99.90;;;;;;4411695;32;20208;-73
2022/03/19 01:30:49;;;;;;;92.13;39.33;;;-0.50;99.90;;;;;;4411242;32;20178;-73
2022/03/19 01:33:16;;;;;;;97.77;40.43;;;-0.50;99.90;;;;;;4424576;32;20493;-73
2022/03/19 01:35:43;;;;;;;99.77;41.13;;;-0.50;99.90;;;;;;4410579;32;20209;-73
2022/03/19 01:38:10;;;;;;;98.80;40.80;;;-0.60;99.90;;;;;;4410273;32;20231;-73
2022/03/19 01:40:37;;;;;;;95.43;40.10;;;-0.60;99.90;;;;;;4410486;32;20231;-73
2022/03/19 01:43:04;;;;;;;105.37;39.87;;;-0.50;99.90;;;;;;4410230;32;20444;-73
2022/03/19 01:45:31;;;;;;;102.73;42.30;;;-0.60;99.90;;;;;;4410025;32;20181;-73
2022/03/19 01:47:59;;;;;;;107.60;42.93;;;-0.60;99.90;;;;;;4410827;32;20536;-73
2022/03/19 01:50:26;;;;;;;108.33;42.50;;;-0.70;99.90;;;;;;4410261;32;20221;-73
2022/03/19 01:52:54;;;;;;;103.37;42.63;;;-0.70;99.90;;;;;;4410384;32;20255;-73
2022/03/19 01:55:23;;;;;;;111.10;43.87;;;-0.70;99.90;;;;;;4411356;32;20216;-73
2022/03/19 01:57:52;;;;;;;107.43;45.00;;;-0.80;99.90;;;;;;4409785;32;20178;-73
2022/03/19 02:00:21;;;;;;;105.20;43.07;;;-0.80;99.90;;;;;;4410849;32;20242;-73
2022/03/19 02:02:50;;;;;;;108.43;43.90;;;-0.80;99.90;;;;;;4425601;32;20150;-74
2022/03/19 02:05:20;;;;;;;111.17;44.20;;;-0.90;99.90;;;;;;4411844;32;20196;-73
2022/03/19 02:07:48;;;;;;;115.23;45.37;;;-1.00;99.90;;;;;;4424158;32;20146;-73
2022/03/19 02:10:18;;;;;;;107.23;44.37;;;-1.00;99.90;;;;;;4411613;32;20224;-73
2022/03/19 02:12:45;;;;;;;108.53;44.43;;;-1.00;99.90;;;;;;4410015;32;20205;-73
2022/03/19 02:15:14;;;;;;;104.17;44.03;;;-1.10;99.90;;;;;;4411669;32;20181;-73
2022/03/19 02:17:41;;;;;;;111.77;45.23;;;-1.10;99.90;;;;;;4411273;32;20178;-73
2022/03/19 02:20:09;;;;;;;101.13;44.03;;;-1.10;99.90;;;;;;4410216;32;20195;-73
2022/03/19 02:22:37;;;;;;;104.93;44.40;;;-1.10;99.90;;;;;;4410791;32;20409;-72
2022/03/19 02:27:49;;;;;;;105.17;43.07;;;-1.10;99.90;;;;;;4410033;32;20197;-71
2022/03/19 02:30:17;;;;;;;109.80;43.07;;;-1.10;99.90;;;;;;4410367;32;20505;-72
2022/03/19 02:32:49;;;;;;;101.63;42.60;;;-1.20;99.90;;;;;;4409750;32;20571;-72
2022/03/19 02:35:18;;;;;;;100.90;43.67;;;-1.20;99.90;;;;;;4424512;32;20146;-72
2022/03/19 02:37:47;;;;;;;100.40;42.70;;;-1.20;99.90;;;;;;4409932;32;20186;-72
2022/03/19 02:40:17;;;;;;;101.40;42.67;;;-1.30;99.90;;;;;;4409949;32;20548;-72
2022/03/19 02:42:51;;;;;;;101.23;42.80;;;-1.30;99.90;;;;;;4410876;32;20225;-72
2022/03/19 02:45:20;;;;;;;101.47;42.40;;;-1.30;99.90;;;;;;4411035;32;20178;-72
2022/03/19 02:47:59;;;;;;;102.07;41.93;;;-1.40;99.90;;;;;;4410014;32;20529;-72
2022/03/19 02:50:37;;;;;;;101.13;41.43;;;-1.40;99.90;;;;;;4425496;32;20161;-72
2022/03/19 02:53:10;;;;;;;100.67;40.73;;;-1.40;99.90;;;;;;4409359;32;20267;-72
2022/03/19 02:55:40;;;;;;;100.37;42.03;;;-1.40;99.90;;;;;;4409852;32;20194;-72
2022/03/19 02:58:08;;;;;;;96.00;39.90;;;-1.50;99.90;;;;;;4424315;32;20142;-72
2022/03/19 03:00:36;;;;;;;87.90;39.20;;;-1.50;99.90;;;;;;4409675;32;20179;-72
2022/03/19 03:03:04;;;;;;;98.77;40.17;;;-1.60;99.90;;;;;;4397889;32;20267;-72
2022/03/19 03:05:33;;;;;;;99.27;39.20;;;-1.50;99.90;;;;;;4425423;32;20188;-72
2022/03/19 03:08:01;;;;;;;96.23;39.33;;;-1.50;99.90;;;;;;4410091;32;20400;-72
2022/03/19 03:10:28;;;;;;;96.60;40.53;;;-1.50;99.90;;;;;;4426642;32;20489;-72
2022/03/19 03:12:55;;;;;;;92.47;38.97;;;-1.40;99.90;;;;;;4427201;32;20423;-72
2022/03/19 03:15:23;;;;;;;95.30;40.20;;;-1.40;99.90;;;;;;4413810;32;20221;-72
2022/03/19 03:17:50;;;;;;;100.43;39.73;;;-1.40;99.90;;;;;;4412410;32;20228;-72
2022/03/19 03:20:18;;;;;;;96.93;39.67;;;-1.40;99.90;;;;;;4414073;32;20179;-72
2022/03/19 03:22:45;;;;;;;96.37;39.53;;;-1.40;99.90;;;;;;4399470;32;20179;-72
2022/03/19 03:25:12;;;;;;;99.97;40.07;;;-1.50;99.90;;;;;;4413299;32;20213;-72
2022/03/19 03:27:39;;;;;;;97.37;39.10;;;-1.50;99.90;;;;;;4413440;32;20242;-72
2022/03/19 03:30:06;;;;;;;94.80;38.93;;;-1.60;99.90;;;;;;4411972;32;20210;-72
2022/03/19 03:32:33;;;;;;;106.40;40.07;;;-1.60;99.90;;;;;;4412088;32;20245;-72
2022/03/19 03:35:00;;;;;;;95.33;39.23;;;-1.60;99.90;;;;;;4427831;32;20234;-72
2022/03/19 03:37:27;;;;;;;90.90;38.83;;;-1.60;99.90;;;;;;4426993;32;20396;-72
2022/03/19 03:39:54;;;;;;;96.30;39.37;;;-1.70;99.90;;;;;;4413178;32;20264;-72
2022/03/19 03:42:21;;;;;;;101.23;39.43;;;-1.70;99.90;;;;;;4412221;32;20257;-72
2022/03/19 03:44:48;;;;;;;97.93;39.87;;;-1.70;99.90;;;;;;4425723;32;20172;-72
2022/03/19 03:47:15;;;;;;;92.17;39.77;;;-1.70;99.90;;;;;;4413727;32;20186;-72
2022/03/19 03:49:42;;;;;;;100.77;39.90;;;-1.80;99.90;;;;;;4412155;32;20175;-72
2022/03/19 03:52:09;;;;;;;95.87;39.47;;;-1.80;99.90;;;;;;4426229;32;20185;-72
2022/03/19 03:54:36;;;;;;;94.83;39.17;;;-1.90;99.90;;;;;;4412002;32;20234;-72
2022/03/19 03:57:03;;;;;;;91.67;39.07;;;-1.90;99.90;;;;;;4412976;32;20265;-73
2022/03/19 03:59:30;;;;;;;96.60;38.70;;;-1.90;99.90;;;;;;4411631;32;20174;-72
2022/03/19 04:01:58;;;;;;;92.63;37.47;;;-1.90;99.90;;;;;;4427508;32;20143;-72
2022/03/19 04:04:26;;;;;;;88.70;35.30;;;-1.90;99.90;;;;;;4426466;32;20135;-72
2022/03/19 04:06:53;;;;;;;90.20;37.60;;;-1.90;99.90;;;;;;4411718;32;20170;-72
2022/03/19 04:09:21;;;;;;;95.03;37.37;;;-1.90;99.90;;;;;;4413545;32;20554;-72
2022/03/19 04:11:48;;;;;;;91.17;37.27;;;-1.90;99.90;;;;;;4426104;32;20196;-72
2022/03/19 04:14:14;;;;;;;89.00;36.80;;;-1.90;99.90;;;;;;4425691;32;20159;-72
2022/03/19 04:16:41;;;;;;;90.63;36.30;;;-1.80;99.90;;;;;;4411836;32;20186;-72
2022/03/19 04:19:08;;;;;;;88.83;37.30;;;-1.80;99.90;;;;;;4427186;32;20536;-72
2022/03/19 04:21:42;;;;;;;86.00;35.90;;;-1.70;99.90;;;;;;4410914;32;20194;-73
2022/03/19 04:24:09;;;;;;;81.57;34.23;;;-1.70;99.90;;;;;;4413244;32;20183;-72
2022/03/19 04:26:36;;;;;;;83.83;35.07;;;-1.70;99.90;;;;;;4411645;32;20244;-72
2022/03/19 04:29:03;;;;;;;83.33;34.30;;;-1.70;99.90;;;;;;4412653;32;20179;-73
2022/03/19 04:31:29;;;;;;;82.67;33.97;;;-1.70;99.90;;;;;;4425069;32;20488;-73
2022/03/19 04:33:56;;;;;;;84.43;33.50;;;-1.60;99.90;;;;;;4412557;32;20249;-72
2022/03/19 04:36:30;;;;;;;78.27;33.27;;;-1.70;99.90;;;;;;4412645;32;20615;-72
2022/03/19 04:38:58;;;;;;;82.67;33.87;;;-1.70;99.90;;;;;;4426513;32;20177;-72
2022/03/19 04:41:26;;;;;;;84.57;34.60;;;-1.60;99.90;;;;;;4425089;32;20135;-73
2022/03/19 04:43:53;;;;;;;81.07;32.80;;;-1.60;99.90;;;;;;4412758;32;20193;-72
2022/03/19 04:46:20;;;;;;;74.47;32.93;;;-1.50;99.90;;;;;;4411186;32;20201;-73
2022/03/19 04:48:48;;;;;;;84.43;33.43;;;-1.60;99.90;;;;;;4410842;32;20178;-72
2022/03/19 04:51:18;;;;;;;79.97;32.13;;;-1.60;99.90;;;;;;4425616;32;20374;-72
2022/03/19 04:53:50;;;;;;;72.50;31.70;;;-1.60;99.90;;;;;;4411955;32;20170;-72
2022/03/19 04:56:19;;;;;;;74.17;33.93;;;-1.60;99.90;;;;;;4411483;32;20536;-72
2022/03/19 04:58:46;;;;;;;76.93;33.57;;;-1.70;99.90;;;;;;4410937;32;20412;-72
2022/03/19 05:01:13;;;;;;;73.17;31.80;;;-1.70;99.90;;;;;;4412236;32;20216;-72
2022/03/19 05:03:40;;;;;;;80.00;31.47;;;-1.70;99.90;;;;;;4410503;32;20214;-72
2022/03/19 05:06:07;;;;;;;75.43;32.20;;;-1.70;99.90;;;;;;4411325;32;20186;-73
2022/03/19 05:08:34;;;;;;;72.90;31.40;;;-1.70;99.90;;;;;;4410619;32;20256;-73
2022/03/19 05:11:13;;;;;;;72.03;31.40;;;-1.70;99.90;;;;;;4411115;32;20179;-73
2022/03/19 05:13:45;;;;;;;72.23;31.00;;;-1.70;99.90;;;;;;4412026;32;20192;-72
2022/03/19 05:16:12;;;;;;;73.07;31.83;;;-1.70;99.90;;;;;;4411397;32;20178;-72
2022/03/19 05:18:39;;;;;;;64.70;29.47;;;-1.60;99.90;;;;;;4412263;32;20197;-73
2022/03/19 05:21:07;;;;;;;65.67;29.10;;;-1.60;99.90;;;;;;4424408;32;20196;-73
2022/03/19 05:23:34;;;;;;;70.37;30.93;;;-1.60;99.90;;;;;;4410622;32;20229;-72
2022/03/19 05:26:01;;;;;;;67.27;30.23;;;-1.50;99.90;;;;;;4411068;32;20182;-72
2022/03/19 05:28:28;;;;;;;70.07;30.23;;;-1.50;99.90;;;;;;4410524;32;20182;-72
2022/03/19 05:30:57;;;;;;;68.10;29.57;;;-1.50;99.90;;;;;;4410300;32;20214;-72
2022/03/19 05:34:29;;;;;;;67.07;29.60;;;-1.40;99.90;;;;;;4425028;32;20151;-72
2022/03/19 05:36:12;;;;;;;68.10;29.27;;;-1.40;99.90;;;;;;4410236;32;20175;-72
2022/03/19 05:38:39;;;;;;;64.67;28.83;;;-1.40;99.90;;;;;;4411378;32;20183;-72
2022/03/19 05:41:06;;;;;;;64.67;29.43;;;-1.40;99.90;;;;;;4425434;32;20204;-72
2022/03/19 05:43:33;;;;;;;70.00;29.27;;;-1.30;99.90;;;;;;4410786;32;20559;-72
2022/03/19 05:46:00;;;;;;;66.17;29.37;;;-1.30;99.90;;;;;;4410743;32;20228;-72
2022/03/19 05:48:27;;;;;;;67.43;29.57;;;-1.30;99.90;;;;;;4410706;32;20212;-72
2022/03/19 05:50:54;;;;;;;65.30;28.93;;;-1.20;99.90;;;;;;4425870;32;20519;-72
2022/03/19 05:53:27;;;;;;;71.13;29.70;;;-1.20;99.90;;;;;;4411605;32;20182;-73
2022/03/19 05:55:54;;;;;;;73.50;29.27;;;-1.10;99.90;;;;;;4409675;32;20221;-72
2022/03/19 05:58:21;;;;;;;67.10;28.60;;;-1.10;99.90;;;;;;4409767;32;20185;-72
2022/03/19 06:00:48;;;;;;;60.50;27.43;;;-1.00;99.90;;;;;;4410023;32;20251;-72
2022/03/19 06:03:15;;;;;;;56.53;26.43;;;-0.90;99.90;;;;;;4424287;32;20158;-72
2022/03/19 06:05:42;;;;;;;57.70;26.60;;;-0.80;99.90;;;;;;4425252;32;20553;-72
2022/03/19 06:08:09;;;;;;;61.97;26.93;;;-0.70;99.90;;;;;;4410053;32;20545;-72
2022/03/19 06:10:36;;;;;;;58.20;24.97;;;-0.60;99.90;;;;;;4411764;32;20186;-72
2022/03/19 06:13:03;;;;;;;56.23;25.33;;;-0.50;99.90;;;;;;4409986;32;20216;-72
2022/03/19 06:15:30;;;;;;;62.63;27.33;;;-0.40;99.90;;;;;;4411641;32;20202;-72
2022/03/19 06:17:57;;;;;;;59.10;26.30;;;-0.20;99.90;;;;;;4410143;32;20248;-72
2022/03/19 06:20:24;;;;;;;63.37;27.57;;;-0.10;99.90;;;;;;4411030;32;20206;-72
2022/03/19 06:22:51;;;;;;;52.63;25.37;;;0.00;99.90;;;;;;4410644;32;20197;-72
2022/03/19 06:25:18;;;;;;;57.60;26.07;;;0.10;99.90;;;;;;4411222;32;20190;-72
2022/03/19 06:27:45;;;;;;;57.70;25.30;;;0.20;99.90;;;;;;4424401;32;20473;-72
2022/03/19 06:30:12;;;;;;;53.13;24.83;;;0.30;99.90;;;;;;4411546;32;20216;-72
2022/03/19 06:32:41;;;;;;;54.50;24.53;;;0.50;99.90;;;;;;4411695;32;20187;-72
2022/03/19 06:35:10;;;;;;;57.07;25.07;;;0.80;99.90;;;;;;4424105;32;20139;-72
2022/03/19 06:37:37;;;;;;;58.50;26.97;;;0.90;99.90;;;;;;4409637;32;20190;-72
2022/03/19 06:40:07;;;;;;;64.43;27.97;;;1.00;99.90;;;;;;4410383;32;20253;-72
2022/03/19 06:42:34;;;;;;;61.33;28.43;;;1.10;99.90;;;;;;4410358;32;20555;-72
2022/03/19 06:45:02;;;;;;;63.53;28.83;;;1.20;99.90;;;;;;4412568;32;20513;-72
2022/03/19 06:47:30;;;;;;;62.70;27.33;;;1.30;99.90;;;;;;4427109;32;20214;-72
2022/03/19 06:49:57;;;;;;;61.47;26.87;;;1.60;99.90;;;;;;4412649;32;20174;-72
2022/03/19 06:52:28;;;;;;;60.70;28.80;;;1.70;99.90;;;;;;4427051;32;20500;-72
2022/03/19 06:54:55;;;;;;;59.97;28.70;;;1.70;99.90;;;;;;4426994;32;20143;-72
2022/03/19 06:57:22;;;;;;;62.80;28.87;;;1.70;99.90;;;;;;4413712;32;20175;-72
2022/03/19 06:59:49;;;;;;;55.93;27.37;;;1.70;99.90;;;;;;4426972;32;20481;-72
2022/03/19 07:02:16;;;;;;;55.57;25.77;;;1.80;99.90;;;;;;4413723;32;20293;-72
2022/03/19 07:04:44;;;;;;;61.53;26.93;;;1.80;99.90;;;;;;4413609;32;20170;-72
2022/03/19 07:07:10;;;;;;;61.00;28.10;;;1.90;99.90;;;;;;4412310;32;20602;-72
2022/03/19 07:09:37;;;;;;;59.87;26.83;;;1.90;99.90;;;;;;4413136;32;20521;-72
2022/03/19 07:12:06;;;;;;;55.10;26.43;;;2.10;99.90;;;;;;4400128;32;20225;-72
2022/03/19 07:14:33;;;;;;;55.77;26.13;;;2.10;99.90;;;;;;4426107;32;20219;-71
2022/03/19 07:17:00;;;;;;;57.17;25.97;;;2.30;99.90;;;;;;4426328;32;20163;-72
2022/03/19 07:19:27;;;;;;;58.27;25.17;;;2.40;99.90;;;;;;4412454;32;20218;-72
2022/03/19 07:21:54;;;;;;;52.47;24.47;;;2.50;99.90;;;;;;4426657;32;20215;-72
2022/03/19 07:24:22;;;;;;;53.77;24.20;;;2.60;99.90;;;;;;4412093;32;20186;-72
2022/03/19 07:26:49;;;;;;;49.10;23.07;;;2.70;99.90;;;;;;4425930;32;20179;-72
2022/03/19 07:29:19;;;;;;;50.90;22.70;;;2.80;99.90;;;;;;4427148;32;20179;-72
2022/03/19 07:31:50;;;;;;;46.43;22.10;;;3.00;99.90;;;;;;4412668;32;20521;-72
2022/03/19 07:34:17;;;;;;;52.20;22.60;;;3.20;99.90;;;;;;4414063;32;20235;-72
2022/03/19 07:36:44;;;;;;;43.03;21.37;;;3.30;99.90;;;;;;4426739;32;20522;-72
2022/03/19 07:39:11;;;;;;;45.47;21.90;;;3.40;99.90;;;;;;4411812;32;20416;-72
2022/03/19 07:41:48;;;;;;;46.07;21.43;;;3.60;99.90;;;;;;4426721;32;20202;-72
2022/03/19 07:44:16;;;;;;;43.60;21.23;;;3.70;99.90;;;;;;4412340;32;20228;-72
2022/03/19 07:46:43;;;;;;;43.50;21.17;;;3.80;99.90;;;;;;4412427;32;20202;-72
2022/03/19 07:49:11;;;;;;;46.23;21.33;;;3.90;99.90;;;;;;4413069;32;20216;-72
2022/03/19 07:51:39;;;;;;;41.60;20.63;;;4.10;99.90;;;;;;4412103;32;20468;-72
2022/03/19 07:54:06;;;;;;;42.90;20.47;;;4.20;99.30;;;;;;4412698;32;20580;-72
2022/03/19 07:56:33;;;;;;;36.13;18.17;;;4.30;97.50;;;;;;4424685;32;20172;-72
2022/03/19 07:59:00;;;;;;;38.40;19.20;;;4.30;95.30;;;;;;4426824;32;20154;-72
2022/03/19 08:01:27;;;;;;;37.40;17.67;;;4.40;95.50;;;;;;4411603;32;20177;-72
2022/03/19 08:03:58;;;;;;;37.47;18.30;;;4.60;94.80;;;;;;4412028;32;20182;-72
2022/03/19 08:06:25;;;;;;;35.27;17.67;;;4.70;93.30;;;;;;4427559;32;20143;-72
2022/03/19 08:08:52;;;;;;;36.33;18.70;;;4.80;91.70;;;;;;4412491;32;20175;-72
2022/03/19 08:11:19;;;;;;;41.53;19.07;;;4.80;91.00;;;;;;4412334;32;20241;-72
2022/03/19 08:13:46;;;;;;;39.33;19.10;;;5.00;90.50;;;;;;4411552;32;20549;-72
2022/03/19 08:16:14;;;;;;;38.97;19.80;;;5.10;90.30;;;;;;4411060;32;20189;-72
2022/03/19 08:18:41;;;;;;;41.70;19.53;;;5.20;89.30;;;;;;4411815;32;20457;-73
2022/03/19 08:21:08;;;;;;;39.37;19.00;;;5.20;86.50;;;;;;4411661;32;20197;-73
2022/03/19 08:23:36;;;;;;;38.10;18.07;;;5.30;85.00;;;;;;4425668;32;20190;-72
2022/03/19 08:26:02;;;;;;;40.97;18.87;;;5.80;84.80;;;;;;4409195;32;20190;-72
2022/03/19 08:28:29;;;;;;;38.03;18.83;;;6.50;79.90;;;;;;4409571;32;20173;-73
2022/03/19 08:30:58;;;;;;;39.70;19.10;;;7.10;77.50;;;;;;4408691;32;20186;-72
2022/03/19 08:33:26;;;;;;;37.93;19.00;;;7.80;72.70;;;;;;4409700;32;20598;-73
2022/03/19 08:35:52;;;;;;;35.53;17.90;;;8.50;69.50;;;;;;4409179;32;20180;-73
2022/03/19 08:41:06;;;;;;;30.00;14.67;;;9.50;61.80;;;;;;4410443;32;20139;-74
2022/03/19 08:43:35;;;;;;;22.67;11.37;;;9.80;57.70;;;;;;4408809;32;20186;-73
2022/03/19 08:46:02;;;;;;;24.67;12.07;;;10.20;55.60;;;;;;4410202;32;20163;-74
2022/03/19 08:48:29;;;;;;;27.80;13.07;;;10.70;53.60;;;;;;4410383;32;20155;-74
2022/03/19 08:51:39;;;;;;;24.20;13.17;;;11.00;51.80;;;;;;4394203;32;20558;-74
2022/03/19 08:53:48;;;;;;;21.27;11.70;;;11.10;51.40;;;;;;4400874;32;20179;-74
2022/03/19 08:56:15;;;;;;;19.00;10.83;;;11.40;49.10;;;;;;4408655;32;20241;-74
2022/03/19 08:58:42;;;;;;;18.37;9.67;;;11.70;48.40;;;;;;4410062;32;20178;-74
2022/03/19 09:01:09;;;;;;;16.50;8.87;;;11.60;46.80;;;;;;4409525;32;20474;-74
2022/03/19 09:03:37;;;;;;;14.73;8.57;;;11.80;46.10;;;;;;4408181;32;20175;-74
2022/03/19 09:06:04;;;;;;;16.67;9.63;;;12.20;45.40;;;;;;4407815;32;20179;-75
2022/03/19 09:08:31;;;;;;;16.93;9.20;;;12.50;44.50;;;;;;4409979;32;20147;-75
2022/03/19 09:10:58;;;;;;;17.47;9.60;;;12.80;44.00;;;;;;4409543;32;20174;-75
2022/03/19 09:13:25;;;;;;;14.60;8.50;;;13.20;43.60;;;;;;4408561;32;20220;-75
2022/03/19 09:15:52;;;;;;;15.47;9.03;;;13.50;42.20;;;;;;4408231;32;20187;-75
2022/03/19 09:18:20;;;;;;;16.03;9.43;;;13.50;41.70;;;;;;4407981;32;20453;-74
2022/03/19 09:20:47;;;;;;;17.47;9.33;;;13.70;40.70;;;;;;4392412;32;20589;-75
2022/03/19 09:23:14;;;;;;;16.87;9.50;;;13.90;40.20;;;;;;4393706;32;20171;-75
2022/03/19 09:25:42;;;;;;;15.77;9.00;;;14.30;40.20;;;;;;4403183;32;20517;-74
2022/03/19 09:28:09;;;;;;;14.93;8.93;;;14.40;39.90;;;;;;4410884;32;20450;-75
2022/03/19 09:30:36;;;;;;;14.83;9.20;;;14.60;39.20;;;;;;4410911;32;20284;-75
2022/03/19 09:33:06;;;;;;;17.00;9.17;;;14.70;38.90;;;;;;4410780;32;20209;-75
2022/03/19 09:35:43;;;;;;;16.27;9.10;;;14.70;38.70;;;;;;4410994;32;20547;-74
2022/03/19 09:38:10;;;;;;;14.47;8.97;;;15.00;38.80;;;;;;4425538;32;20446;-75
2022/03/19 09:40:39;;;;;;;16.47;9.30;;;15.00;37.60;;;;;;4409731;32;20174;-75
2022/03/19 09:43:06;;;;;;;17.33;9.50;;;15.30;37.60;;;;;;4424365;32;20176;-75
2022/03/19 09:45:34;;;;;;;16.30;8.87;;;15.50;36.90;;;;;;4409790;32;20536;-74
2022/03/19 09:48:01;;;;;;;16.43;9.50;;;15.60;36.60;;;;;;4411374;32;20190;-74
2022/03/19 09:50:28;;;;;;;17.53;9.47;;;15.70;36.20;;;;;;4424776;32;20457;-75
2022/03/19 09:52:57;;;;;;;15.77;9.37;;;15.90;35.50;;;;;;4410342;32;20277;-74
2022/03/19 09:55:28;;;;;;;17.37;9.70;;;16.10;35.30;;;;;;4423698;32;20190;-74
2022/03/19 09:57:56;;;;;;;15.80;8.80;;;16.30;35.60;;;;;;4424445;32;20247;-74
2022/03/19 10:00:26;;;;;;;14.77;8.87;;;16.30;33.40;;;;;;4411311;32;20251;-74
2022/03/19 10:02:56;;;;;;;13.63;8.67;;;16.50;33.50;;;;;;4424184;32;20512;-74
2022/03/19 10:10:59;;;;;;;13.90;7.90;;;17.00;33.00;;;;;;4424066;32;20433;-74
2022/03/19 10:13:26;;;;;;;11.37;7.17;;;17.10;33.20;;;;;;4409955;32;20193;-74
2022/03/19 10:15:54;;;;;;;11.77;7.70;;;16.90;33.00;;;;;;4409749;32;20175;-74
2022/03/19 10:18:31;;;;;;;11.40;7.43;;;16.90;32.90;;;;;;4410012;32;20213;-75
2022/03/19 10:21:12;;;;;;;12.60;7.50;;;17.20;33.00;;;;;;4411430;32;20201;-74
2022/03/19 10:23:39;;;;;;;12.97;7.30;;;17.40;32.00;;;;;;4409640;32;20385;-75
2022/03/19 10:26:07;;;;;;;11.87;7.20;;;17.50;31.70;;;;;;4409964;32;20303;-74
2022/03/19 10:28:36;;;;;;;9.90;6.70;;;17.60;31.20;;;;;;4423927;32;20178;-74
2022/03/19 10:31:03;;;;;;;13.70;6.77;;;17.70;31.20;;;;;;4409451;32;20204;-74
2022/03/19 10:33:31;;;;;;;11.30;6.63;;;17.80;30.60;;;;;;4424087;32;20147;-74
2022/03/19 10:36:07;;;;;;;11.93;6.70;;;17.40;30.30;;;;;;4423975;32;20198;-74
2022/03/19 10:38:44;;;;;;;13.33;8.37;;;17.40;30.70;;;;;;4410112;32;20220;-74
2022/03/19 10:41:16;;;;;;;11.70;7.37;;;17.50;30.80;;;;;;4409486;32;20225;-73
2022/03/19 10:43:47;;;;;;;11.90;7.33;;;17.40;30.80;;;;;;4409591;32;20242;-72
2022/03/19 10:46:20;;;;;;;12.27;8.20;;;17.60;30.60;;;;;;4409485;32;20485;-73
2022/03/19 10:48:49;;;;;;;11.03;7.17;;;17.80;30.60;;;;;;4410997;32;20440;-73
2022/03/19 10:51:17;;;;;;;13.37;7.40;;;18.20;29.80;;;;;;4410616;32;20436;-73
2022/03/19 10:53:44;;;;;;;12.97;7.90;;;18.40;29.80;;;;;;4409909;32;20197;-73
2022/03/19 10:56:11;;;;;;;12.30;6.87;;;18.10;29.60;;;;;;4409925;32;20203;-73
2022/03/19 10:58:59;;;;;;;12.60;7.57;;;18.20;29.80;;;;;;4409200;32;20222;-74
2022/03/19 11:01:27;;;;;;;11.07;7.90;;;18.40;29.20;;;;;;4409612;32;20244;-73
2022/03/19 11:03:55;;;;;;;13.63;7.50;;;18.70;29.70;;;;;;4410793;32;20225;-73
2022/03/19 11:06:25;;;;;;;11.70;7.57;;;18.90;28.90;;;;;;4410610;32;20185;-73
2022/03/19 11:08:55;;;;;;;10.03;6.67;;;19.00;28.70;;;;;;4423734;32;20143;-73
2022/03/19 11:11:32;;;;;;;10.30;6.70;;;19.20;28.50;;;;;;4410246;32;20174;-72
2022/03/19 11:14:02;;;;;;;11.60;6.70;;;19.40;28.60;;;;;;4409362;32;20589;-71
2022/03/19 11:16:35;;;;;;;9.97;6.70;;;19.40;28.80;;;;;;4410060;32;20492;-73
2022/03/19 11:19:08;;;;;;;12.10;7.37;;;19.50;28.40;;;;;;4397300;32;20430;-73
2022/03/19 11:21:35;;;;;;;14.47;7.00;;;19.10;28.10;;;;;;4409112;32;20235;-73
2022/03/19 11:24:22;;;;;;;12.80;7.10;;;19.30;28.30;;;;;;4410426;32;20390;-73
2022/03/19 11:26:51;;;;;;;10.93;7.47;;;19.30;28.10;;;;;;4409115;32;20201;-73
2022/03/19 11:29:19;;;;;;;10.87;6.73;;;19.60;28.10;;;;;;4409653;32;20224;-73
2022/03/19 11:32:07;;;;;;;12.37;7.53;;;19.60;28.30;;;;;;4427482;32;20135;-73
2022/03/19 11:34:46;;;;;;;11.00;7.00;;;20.00;27.50;;;;;;4426886;32;20422;-72
2022/03/19 11:37:13;;;;;;;10.67;7.27;;;20.30;27.60;;;;;;4412727;32;20228;-73
2022/03/19 11:40:01;;;;;;;11.87;7.00;;;20.40;27.20;;;;;;4425829;32;20147;-73
2022/03/19 11:42:29;;;;;;;10.93;7.13;;;20.80;26.70;;;;;;4405445;32;20231;-73
2022/03/19 11:45:06;;;;;;;11.93;7.50;;;21.60;26.40;;;;;;4417413;32;20154;-73
2022/03/19 11:47:34;;;;;;;13.37;7.97;;;22.40;25.60;;;;;;4411394;32;20178;-73
2022/03/19 11:50:02;;;;;;;11.32;7.85;;;23.10;24.90;;;;;;4396389;32;20578;-73
2022/03/19 11:52:29;;;;;;;13.75;7.85;;;23.30;24.60;;;;;;4396218;32;20175;-74
2022/03/19 11:55:05;;;;;;;11.30;7.95;;;23.80;24.20;;;;;;4396698;32;20427;-74
2022/03/19 11:58:02;;;;;;;13.27;8.60;;;23.90;23.80;;;;;;4397811;32;20529;-74
2022/03/19 12:00:32;;;;;;;12.27;8.30;;;24.60;24.10;;;;;;4396254;32;20228;-74
2022/03/19 12:03:07;;;;;;;13.13;8.45;;;25.20;23.30;;;;;;4396208;32;20213;-74
2022/03/19 12:05:43;;;;;;;13.10;8.45;;;25.30;23.20;;;;;;4396729;32;20600;-74
2022/03/19 12:08:22;;;;;;;14.25;8.70;;;25.40;22.90;;;;;;4397203;32;20461;-74
2022/03/19 12:11:13;;;;;;;12.05;8.45;;;25.40;22.80;;;;;;4410704;32;20401;-74
2022/03/19 12:13:42;;;;;;;14.02;9.00;;;25.60;22.90;;;;;;4396322;32;20189;-73
2022/03/19 12:16:12;;;;;;;12.88;8.30;;;25.60;22.70;;;;;;4397044;32;20427;-73
2022/03/19 12:18:39;;;;;;;12.40;8.35;;;25.90;22.50;;;;;;4396788;32;20198;-73
2022/03/19 12:21:09;;;;;;;14.82;8.77;;;26.10;22.40;;;;;;4396595;32;20163;-74
2022/03/19 12:23:51;;;;;;;12.05;8.75;;;26.00;22.30;;;;;;4397429;32;20174;-73
2022/03/19 12:26:22;;;;;;;15.82;8.25;;;26.30;22.40;;;;;;4384290;32;20186;-74
2022/03/19 12:29:00;;;;;;;10.85;8.10;;;25.20;21.50;;;;;;4395863;32;20172;-75
2022/03/19 12:31:36;;;;;;;12.18;8.43;;;24.80;22.30;;;;;;4362576;32;20493;-71
2022/03/19 12:34:05;;;;;;;13.98;8.82;;;24.60;22.60;;;;;;4363648;32;20232;-73
2022/03/19 12:36:32;;;;;;;13.00;8.13;;;24.80;22.80;;;;;;4350874;33;20202;-71
2022/03/19 12:39:01;;;;;;;12.93;8.30;;;24.90;22.70;;;;;;4362384;33;20211;-71
2022/03/19 12:41:28;;;;;;;13.20;8.40;;;25.40;22.40;;;;;;4350221;33;20473;-71
2022/03/19 12:44:20;;;;;;;13.23;8.35;;;25.20;22.60;;;;;;4362459;32;20274;-71
2022/03/19 12:46:56;;;;;;;12.95;8.10;;;25.50;22.20;;;;;;4364637;32;20521;-71
2022/03/19 12:49:25;;;;;;;12.35;8.80;;;25.60;22.10;;;;;;4370318;32;20206;-71
2022/03/19 12:51:51;;;;;;;12.27;8.00;;;25.90;21.70;;;;;;4396881;32;20461;-71